Terminal Aerodrome Forecast
Issued by NWS Denver/Boulder, CO

Home | Current Version | Previous Version | Text Only | Print | Product List | Glossary On
Versions: 1 2 3 4 5 6 7 8 9 10 11 12 13 14 15 16 17 18 19 20 21 22 23 24 25 26 27 28 29 30 31 32 33 34 35 36 37 38 39 40 41 42 43 44 45 46 47 48 49 50
000
FTUS45 KBOU 011128
TAFDEN
TAF
KDEN 011128Z 0112/0218 20008KT P6SM FEW120 SCT240
     FM011500 24007KT P6SM FEW140 SCT220
     FM011900 VRB05KT P6SM SCT090 BKN200
     FM012200 26011KT P6SM SCT080 BKN150 PROB30 0122/0201 VRB15G30KT
      -TSRA BKN070CB BKN120
     FM020200 22008KT P6SM SCT120 SCT180
     FM020700 19010KT P6SM FEW140 SCT250
     FM021600 30008KT P6SM FEW120 SCT200=

USA.gov is the U.S. government's official web portal to all federal, state and local government web resources and services.